sensor_id;sensor_type;location;lat;lon;timestamp;P1;durP1;ratioP1;P2;durP2;ratioP2
19312;SDS011;9791;50.820;4.406;2023-05-19T00:00:59;8.70;;;4.90;;
19312;SDS011;9791;50.820;4.406;2023-05-19T00:03:25;14.40;;;5.20;;
19312;SDS011;9791;50.820;4.406;2023-05-19T00:05:52;19.08;;;6.50;;
19312;SDS011;9791;50.820;4.406;2023-05-19T00:08:18;11.52;;;5.10;;
19312;SDS011;9791;50.820;4.406;2023-05-19T00:10:45;10.00;;;5.22;;
19312;SDS011;9791;50.820;4.406;2023-05-19T00:13:11;13.05;;;5.65;;
19312;SDS011;9791;50.820;4.406;2023-05-19T00:15:37;10.80;;;5.75;;
19312;SDS011;9791;50.820;4.406;2023-05-19T00:18:04;9.20;;;5.10;;
19312;SDS011;9791;50.820;4.406;2023-05-19T00:20:32;8.55;;;5.45;;
19312;SDS011;9791;50.820;4.406;2023-05-19T00:22:58;12.20;;;5.75;;
19312;SDS011;9791;50.820;4.406;2023-05-19T00:25:25;10.90;;;5.18;;
19312;SDS011;9791;50.820;4.406;2023-05-19T00:27:51;11.43;;;5.65;;
19312;SDS011;9791;50.820;4.406;2023-05-19T00:30:17;10.80;;;5.22;;
19312;SDS011;9791;50.820;4.406;2023-05-19T00:32:43;13.23;;;5.50;;
19312;SDS011;9791;50.820;4.406;2023-05-19T00:35:09;14.80;;;5.85;;
19312;SDS011;9791;50.820;4.406;2023-05-19T00:37:36;15.38;;;5.82;;
19312;SDS011;9791;50.820;4.406;2023-05-19T00:40:02;12.57;;;5.75;;
19312;SDS011;9791;50.820;4.406;2023-05-19T00:42:30;12.50;;;5.78;;
19312;SDS011;9791;50.820;4.406;2023-05-19T00:44:56;11.07;;;5.85;;
19312;SDS011;9791;50.820;4.406;2023-05-19T00:47:22;11.18;;;6.25;;
19312;SDS011;9791;50.820;4.406;2023-05-19T00:49:48;13.07;;;5.70;;
19312;SDS011;9791;50.820;4.406;2023-05-19T00:52:14;10.60;;;6.05;;
19312;SDS011;9791;50.820;4.406;2023-05-19T00:54:41;9.70;;;5.85;;
19312;SDS011;9791;50.820;4.406;2023-05-19T00:57:08;13.57;;;5.70;;
19312;SDS011;9791;50.820;4.406;2023-05-19T00:59:34;15.40;;;6.20;;
19312;SDS011;9791;50.820;4.406;2023-05-19T01:02:00;10.90;;;5.70;;
19312;SDS011;9791;50.820;4.406;2023-05-19T01:04:26;12.07;;;6.15;;
19312;SDS011;9791;50.820;4.406;2023-05-19T01:06:53;10.35;;;6.43;;
19312;SDS011;9791;50.820;4.406;2023-05-19T01:09:20;16.45;;;6.35;;
19312;SDS011;9791;50.820;4.406;2023-05-19T01:11:46;13.10;;;5.78;;
19312;SDS011;9791;50.820;4.406;2023-05-19T01:14:13;13.00;;;5.90;;
19312;SDS011;9791;50.820;4.406;2023-05-19T01:16:39;10.63;;;5.63;;
19312;SDS011;9791;50.820;4.406;2023-05-19T01:19:21;11.50;;;5.90;;
19312;SDS011;9791;50.820;4.406;2023-05-19T01:32:13;14.30;;;6.90;;
19312;SDS011;9791;50.820;4.406;2023-05-19T01:34:42;12.70;;;6.43;;
19312;SDS011;9791;50.820;4.406;2023-05-19T01:37:08;14.65;;;7.38;;
19312;SDS011;9791;50.820;4.406;2023-05-19T01:39:35;10.90;;;6.53;;
19312;SDS011;9791;50.820;4.406;2023-05-19T01:42:01;13.30;;;6.60;;
19312;SDS011;9791;50.820;4.406;2023-05-19T01:44:28;15.00;;;6.68;;
19312;SDS011;9791;50.820;4.406;2023-05-19T01:46:55;11.13;;;7.47;;
19312;SDS011;9791;50.820;4.406;2023-05-19T01:49:21;21.02;;;7.90;;
19312;SDS011;9791;50.820;4.406;2023-05-19T01:51:47;16.15;;;7.22;;
19312;SDS011;9791;50.820;4.406;2023-05-19T01:54:14;15.30;;;6.78;;
19312;SDS011;9791;50.820;4.406;2023-05-19T01:56:41;12.43;;;6.93;;
19312;SDS011;9791;50.820;4.406;2023-05-19T01:59:13;16.10;;;7.55;;
19312;SDS011;9791;50.820;4.406;2023-05-19T02:02:02;14.48;;;7.18;;
19312;SDS011;9791;50.820;4.406;2023-05-19T02:04:44;12.25;;;7.05;;
19312;SDS011;9791;50.820;4.406;2023-05-19T02:07:14;12.98;;;6.68;;
19312;SDS011;9791;50.820;4.406;2023-05-19T02:10:03;17.77;;;7.68;;
19312;SDS011;9791;50.820;4.406;2023-05-19T02:15:00;17.00;;;7.15;;
19312;SDS011;9791;50.820;4.406;2023-05-19T02:17:28;15.32;;;7.45;;
19312;SDS011;9791;50.820;4.406;2023-05-19T02:19:57;13.63;;;7.40;;
19312;SDS011;9791;50.820;4.406;2023-05-19T02:22:23;15.55;;;7.07;;
19312;SDS011;9791;50.820;4.406;2023-05-19T02:24:49;17.67;;;8.05;;
19312;SDS011;9791;50.820;4.406;2023-05-19T02:27:15;15.10;;;7.05;;
19312;SDS011;9791;50.820;4.406;2023-05-19T02:29:42;18.85;;;7.43;;
19312;SDS011;9791;50.820;4.406;2023-05-19T02:32:08;13.20;;;7.65;;
19312;SDS011;9791;50.820;4.406;2023-05-19T02:34:34;13.32;;;6.75;;
19312;SDS011;9791;50.820;4.406;2023-05-19T02:37:02;12.18;;;7.47;;
19312;SDS011;9791;50.820;4.406;2023-05-19T02:39:28;14.77;;;8.35;;
19312;SDS011;9791;50.820;4.406;2023-05-19T02:41:58;17.08;;;8.05;;
19312;SDS011;9791;50.820;4.406;2023-05-19T02:44:25;17.35;;;7.88;;
19312;SDS011;9791;50.820;4.406;2023-05-19T02:46:51;14.52;;;8.23;;
19312;SDS011;9791;50.820;4.406;2023-05-19T02:49:17;11.98;;;7.53;;
19312;SDS011;9791;50.820;4.406;2023-05-19T02:51:43;12.73;;;8.35;;
19312;SDS011;9791;50.820;4.406;2023-05-19T02:54:09;14.35;;;7.88;;
19312;SDS011;9791;50.820;4.406;2023-05-19T02:56:35;15.00;;;7.97;;
19312;SDS011;9791;50.820;4.406;2023-05-19T02:59:01;15.30;;;8.18;;
19312;SDS011;9791;50.820;4.406;2023-05-19T03:01:27;15.23;;;8.57;;
19312;SDS011;9791;50.820;4.406;2023-05-19T03:03:53;13.60;;;8.07;;
19312;SDS011;9791;50.820;4.406;2023-05-19T03:06:19;18.40;;;8.88;;
19312;SDS011;9791;50.820;4.406;2023-05-19T03:08:47;15.32;;;8.70;;
19312;SDS011;9791;50.820;4.406;2023-05-19T03:11:14;14.43;;;9.02;;
19312;SDS011;9791;50.820;4.406;2023-05-19T03:13:40;21.20;;;8.55;;
19312;SDS011;9791;50.820;4.406;2023-05-19T03:16:06;15.90;;;7.88;;
19312;SDS011;9791;50.820;4.406;2023-05-19T03:18:34;14.82;;;8.63;;
19312;SDS011;9791;50.820;4.406;2023-05-19T03:21:01;21.13;;;8.75;;
19312;SDS011;9791;50.820;4.406;2023-05-19T03:23:27;14.75;;;8.00;;
19312;SDS011;9791;50.820;4.406;2023-05-19T03:25:53;14.48;;;8.57;;
19312;SDS011;9791;50.820;4.406;2023-05-19T03:28:20;15.57;;;8.07;;
19312;SDS011;9791;50.820;4.406;2023-05-19T03:30:51;15.70;;;8.27;;
19312;SDS011;9791;50.820;4.406;2023-05-19T03:33:17;14.57;;;9.02;;
19312;SDS011;9791;50.820;4.406;2023-05-19T03:35:43;14.80;;;9.02;;
19312;SDS011;9791;50.820;4.406;2023-05-19T03:38:09;16.67;;;8.38;;
19312;SDS011;9791;50.820;4.406;2023-05-19T03:40:35;16.85;;;8.50;;
19312;SDS011;9791;50.820;4.406;2023-05-19T03:43:01;16.67;;;9.70;;
19312;SDS011;9791;50.820;4.406;2023-05-19T03:45:27;13.95;;;8.38;;
19312;SDS011;9791;50.820;4.406;2023-05-19T03:47:53;14.35;;;9.27;;
19312;SDS011;9791;50.820;4.406;2023-05-19T03:50:20;21.48;;;9.30;;
19312;SDS011;9791;50.820;4.406;2023-05-19T03:52:46;19.52;;;9.63;;
19312;SDS011;9791;50.820;4.406;2023-05-19T03:55:12;20.48;;;9.75;;
19312;SDS011;9791;50.820;4.406;2023-05-19T03:57:39;15.85;;;9.43;;
19312;SDS011;9791;50.820;4.406;2023-05-19T04:00:05;20.33;;;9.35;;
19312;SDS011;9791;50.820;4.406;2023-05-19T04:02:32;16.50;;;9.15;;
19312;SDS011;9791;50.820;4.406;2023-05-19T04:04:58;19.23;;;9.43;;
19312;SDS011;9791;50.820;4.406;2023-05-19T04:07:28;22.73;;;10.50;;
19312;SDS011;9791;50.820;4.406;2023-05-19T04:09:55;16.75;;;8.80;;
19312;SDS011;9791;50.820;4.406;2023-05-19T04:12:21;20.45;;;9.38;;
19312;SDS011;9791;50.820;4.406;2023-05-19T04:14:47;16.80;;;8.77;;
19312;SDS011;9791;50.820;4.406;2023-05-19T04:17:13;14.88;;;9.27;;
19312;SDS011;9791;50.820;4.406;2023-05-19T04:19:39;16.70;;;8.88;;
19312;SDS011;9791;50.820;4.406;2023-05-19T04:22:05;15.63;;;10.43;;
19312;SDS011;9791;50.820;4.406;2023-05-19T04:24:31;22.58;;;10.02;;
19312;SDS011;9791;50.820;4.406;2023-05-19T04:26:57;15.65;;;10.02;;
19312;SDS011;9791;50.820;4.406;2023-05-19T04:29:28;17.13;;;9.85;;
19312;SDS011;9791;50.820;4.406;2023-05-19T04:31:54;16.77;;;9.27;;
19312;SDS011;9791;50.820;4.406;2023-05-19T04:34:24;14.82;;;8.88;;
19312;SDS011;9791;50.820;4.406;2023-05-19T04:36:52;15.95;;;9.38;;
19312;SDS011;9791;50.820;4.406;2023-05-19T04:39:19;13.70;;;9.85;;
19312;SDS011;9791;50.820;4.406;2023-05-19T04:41:45;16.25;;;9.50;;
19312;SDS011;9791;50.820;4.406;2023-05-19T04:44:12;16.58;;;9.35;;
19312;SDS011;9791;50.820;4.406;2023-05-19T04:46:42;13.20;;;8.85;;
19312;SDS011;9791;50.820;4.406;2023-05-19T04:49:09;19.67;;;9.65;;
19312;SDS011;9791;50.820;4.406;2023-05-19T04:51:36;14.55;;;9.75;;
19312;SDS011;9791;50.820;4.406;2023-05-19T04:54:05;16.88;;;9.25;;
19312;SDS011;9791;50.820;4.406;2023-05-19T04:56:31;17.98;;;9.35;;
19312;SDS011;9791;50.820;4.406;2023-05-19T04:58:57;17.33;;;10.10;;
19312;SDS011;9791;50.820;4.406;2023-05-19T05:01:23;18.13;;;9.13;;
19312;SDS011;9791;50.820;4.406;2023-05-19T05:03:50;16.38;;;8.70;;
19312;SDS011;9791;50.820;4.406;2023-05-19T05:06:19;12.57;;;8.80;;
19312;SDS011;9791;50.820;4.406;2023-05-19T05:08:46;14.57;;;9.02;;
19312;SDS011;9791;50.820;4.406;2023-05-19T05:11:12;21.98;;;10.48;;
19312;SDS011;9791;50.820;4.406;2023-05-19T05:13:39;13.07;;;9.50;;
19312;SDS011;9791;50.820;4.406;2023-05-19T05:16:05;14.75;;;8.98;;
19312;SDS011;9791;50.820;4.406;2023-05-19T05:18:32;14.27;;;8.75;;
19312;SDS011;9791;50.820;4.406;2023-05-19T05:20:58;17.30;;;9.63;;
19312;SDS011;9791;50.820;4.406;2023-05-19T05:23:25;14.27;;;9.60;;
19312;SDS011;9791;50.820;4.406;2023-05-19T05:25:51;16.85;;;9.63;;
19312;SDS011;9791;50.820;4.406;2023-05-19T05:28:17;18.27;;;9.57;;
19312;SDS011;9791;50.820;4.406;2023-05-19T05:30:43;18.40;;;10.52;;
19312;SDS011;9791;50.820;4.406;2023-05-19T05:33:10;18.63;;;9.20;;
19312;SDS011;9791;50.820;4.406;2023-05-19T05:35:36;14.93;;;9.05;;
19312;SDS011;9791;50.820;4.406;2023-05-19T05:38:02;13.95;;;8.02;;
19312;SDS011;9791;50.820;4.406;2023-05-19T05:40:28;19.38;;;8.95;;
19312;SDS011;9791;50.820;4.406;2023-05-19T05:42:55;16.05;;;9.38;;
19312;SDS011;9791;50.820;4.406;2023-05-19T05:45:22;13.05;;;9.50;;
19312;SDS011;9791;50.820;4.406;2023-05-19T05:47:49;20.08;;;9.57;;
19312;SDS011;9791;50.820;4.406;2023-05-19T05:50:15;15.10;;;9.30;;
19312;SDS011;9791;50.820;4.406;2023-05-19T05:52:41;18.85;;;9.70;;
19312;SDS011;9791;50.820;4.406;2023-05-19T05:55:10;18.92;;;9.15;;
19312;SDS011;9791;50.820;4.406;2023-05-19T05:57:36;19.13;;;9.55;;
19312;SDS011;9791;50.820;4.406;2023-05-19T06:00:06;17.98;;;9.35;;
19312;SDS011;9791;50.820;4.406;2023-05-19T06:02:34;15.30;;;9.98;;
19312;SDS011;9791;50.820;4.406;2023-05-19T06:05:00;16.00;;;8.88;;
19312;SDS011;9791;50.820;4.406;2023-05-19T06:07:26;13.55;;;9.52;;
19312;SDS011;9791;50.820;4.406;2023-05-19T06:09:52;17.45;;;9.30;;
19312;SDS011;9791;50.820;4.406;2023-05-19T06:12:20;17.98;;;9.43;;
19312;SDS011;9791;50.820;4.406;2023-05-19T06:14:46;15.57;;;8.15;;
19312;SDS011;9791;50.820;4.406;2023-05-19T06:17:13;14.07;;;7.75;;
19312;SDS011;9791;50.820;4.406;2023-05-19T06:19:39;17.58;;;7.93;;
19312;SDS011;9791;50.820;4.406;2023-05-19T06:22:05;16.38;;;7.60;;
19312;SDS011;9791;50.820;4.406;2023-05-19T06:24:31;12.93;;;7.28;;
19312;SDS011;9791;50.820;4.406;2023-05-19T06:26:57;12.43;;;6.60;;
19312;SDS011;9791;50.820;4.406;2023-05-19T06:29:23;11.63;;;6.68;;
19312;SDS011;9791;50.820;4.406;2023-05-19T06:31:49;13.82;;;7.05;;
19312;SDS011;9791;50.820;4.406;2023-05-19T06:34:15;16.08;;;7.07;;
19312;SDS011;9791;50.820;4.406;2023-05-19T06:36:41;12.43;;;6.13;;
19312;SDS011;9791;50.820;4.406;2023-05-19T06:39:07;9.90;;;6.13;;
19312;SDS011;9791;50.820;4.406;2023-05-19T06:41:33;13.27;;;6.25;;
19312;SDS011;9791;50.820;4.406;2023-05-19T06:43:59;8.80;;;5.50;;
19312;SDS011;9791;50.820;4.406;2023-05-19T06:46:25;12.98;;;5.93;;
19312;SDS011;9791;50.820;4.406;2023-05-19T06:48:51;11.40;;;6.25;;
19312;SDS011;9791;50.820;4.406;2023-05-19T06:51:17;10.95;;;5.60;;
19312;SDS011;9791;50.820;4.406;2023-05-19T06:53:46;11.25;;;5.60;;
19312;SDS011;9791;50.820;4.406;2023-05-19T06:56:12;9.80;;;5.40;;
19312;SDS011;9791;50.820;4.406;2023-05-19T06:58:39;8.82;;;5.75;;
19312;SDS011;9791;50.820;4.406;2023-05-19T07:01:05;8.75;;;4.63;;
19312;SDS011;9791;50.820;4.406;2023-05-19T07:03:31;14.98;;;5.65;;
19312;SDS011;9791;50.820;4.406;2023-05-19T07:05:57;12.88;;;5.70;;
19312;SDS011;9791;50.820;4.406;2023-05-19T07:08:23;11.57;;;5.65;;
19312;SDS011;9791;50.820;4.406;2023-05-19T07:10:51;10.82;;;5.05;;
19312;SDS011;9791;50.820;4.406;2023-05-19T07:13:17;10.73;;;5.30;;
19312;SDS011;9791;50.820;4.406;2023-05-19T07:15:43;9.27;;;4.70;;
19312;SDS011;9791;50.820;4.406;2023-05-19T07:18:09;10.40;;;5.28;;
19312;SDS011;9791;50.820;4.406;2023-05-19T07:20:35;9.43;;;5.13;;
19312;SDS011;9791;50.820;4.406;2023-05-19T07:23:01;10.00;;;4.97;;
19312;SDS011;9791;50.820;4.406;2023-05-19T07:25:29;10.35;;;5.15;;
19312;SDS011;9791;50.820;4.406;2023-05-19T07:27:55;12.05;;;5.18;;
19312;SDS011;9791;50.820;4.406;2023-05-19T07:30:21;10.48;;;4.82;;
19312;SDS011;9791;50.820;4.406;2023-05-19T07:32:47;10.65;;;5.05;;
19312;SDS011;9791;50.820;4.406;2023-05-19T07:35:13;10.68;;;5.05;;
19312;SDS011;9791;50.820;4.406;2023-05-19T07:37:41;9.32;;;4.63;;
19312;SDS011;9791;50.820;4.406;2023-05-19T07:40:07;9.40;;;4.35;;
19312;SDS011;9791;50.820;4.406;2023-05-19T07:42:33;11.52;;;4.88;;
19312;SDS011;9791;50.820;4.406;2023-05-19T07:44:59;10.27;;;4.65;;
19312;SDS011;9791;50.820;4.406;2023-05-19T07:47:27;11.48;;;4.80;;
19312;SDS011;9791;50.820;4.406;2023-05-19T07:49:53;10.80;;;4.95;;
19312;SDS011;9791;50.820;4.406;2023-05-19T07:52:19;9.73;;;5.05;;
19312;SDS011;9791;50.820;4.406;2023-05-19T07:54:45;9.77;;;5.05;;
19312;SDS011;9791;50.820;4.406;2023-05-19T07:57:11;9.95;;;4.30;;
19312;SDS011;9791;50.820;4.406;2023-05-19T07:59:38;11.15;;;4.63;;
19312;SDS011;9791;50.820;4.406;2023-05-19T08:02:04;9.13;;;4.90;;
19312;SDS011;9791;50.820;4.406;2023-05-19T08:04:30;8.07;;;3.97;;
19312;SDS011;9791;50.820;4.406;2023-05-19T08:06:56;11.38;;;5.20;;
19312;SDS011;9791;50.820;4.406;2023-05-19T08:09:23;12.63;;;4.82;;
19312;SDS011;9791;50.820;4.406;2023-05-19T08:11:49;9.93;;;4.95;;
19312;SDS011;9791;50.820;4.406;2023-05-19T08:14:15;9.52;;;4.75;;
19312;SDS011;9791;50.820;4.406;2023-05-19T08:16:41;10.07;;;4.32;;
19312;SDS011;9791;50.820;4.406;2023-05-19T08:19:09;8.10;;;4.22;;
19312;SDS011;9791;50.820;4.406;2023-05-19T08:21:35;10.48;;;3.97;;
19312;SDS011;9791;50.820;4.406;2023-05-19T08:24:01;7.95;;;3.58;;
19312;SDS011;9791;50.820;4.406;2023-05-19T08:26:27;7.45;;;4.05;;
19312;SDS011;9791;50.820;4.406;2023-05-19T08:28:53;10.38;;;3.88;;
19312;SDS011;9791;50.820;4.406;2023-05-19T08:31:19;10.93;;;3.50;;
19312;SDS011;9791;50.820;4.406;2023-05-19T08:33:46;6.95;;;3.75;;
19312;SDS011;9791;50.820;4.406;2023-05-19T08:36:12;7.03;;;3.35;;
19312;SDS011;9791;50.820;4.406;2023-05-19T08:38:38;8.55;;;4.15;;
19312;SDS011;9791;50.820;4.406;2023-05-19T08:41:04;8.30;;;3.58;;
19312;SDS011;9791;50.820;4.406;2023-05-19T08:43:30;8.73;;;3.53;;
19312;SDS011;9791;50.820;4.406;2023-05-19T08:45:56;10.98;;;2.92;;
19312;SDS011;9791;50.820;4.406;2023-05-19T08:48:24;8.35;;;3.38;;
19312;SDS011;9791;50.820;4.406;2023-05-19T08:53:29;7.57;;;3.50;;
19312;SDS011;9791;50.820;4.406;2023-05-19T08:56:01;7.10;;;3.33;;
19312;SDS011;9791;50.820;4.406;2023-05-19T08:58:34;9.90;;;3.35;;
19312;SDS011;9791;50.820;4.406;2023-05-19T09:01:00;7.28;;;3.60;;
19312;SDS011;9791;50.820;4.406;2023-05-19T09:03:28;8.88;;;3.28;;
19312;SDS011;9791;50.820;4.406;2023-05-19T09:05:54;6.57;;;2.80;;
19312;SDS011;9791;50.820;4.406;2023-05-19T09:08:20;7.35;;;3.00;;
19312;SDS011;9791;50.820;4.406;2023-05-19T09:10:46;6.70;;;2.78;;
19312;SDS011;9791;50.820;4.406;2023-05-19T09:13:12;9.48;;;2.83;;
19312;SDS011;9791;50.820;4.406;2023-05-19T09:15:38;8.75;;;2.88;;
19312;SDS011;9791;50.820;4.406;2023-05-19T09:18:09;7.30;;;2.45;;
19312;SDS011;9791;50.820;4.406;2023-05-19T09:20:36;9.10;;;3.13;;
19312;SDS011;9791;50.820;4.406;2023-05-19T09:23:02;10.82;;;3.25;;
19312;SDS011;9791;50.820;4.406;2023-05-19T09:25:29;8.80;;;3.35;;
19312;SDS011;9791;50.820;4.406;2023-05-19T09:27:56;6.53;;;2.47;;
19312;SDS011;9791;50.820;4.406;2023-05-19T09:30:22;10.73;;;2.63;;
19312;SDS011;9791;50.820;4.406;2023-05-19T09:32:49;6.40;;;2.17;;
19312;SDS011;9791;50.820;4.406;2023-05-19T09:35:16;6.95;;;2.50;;
19312;SDS011;9791;50.820;4.406;2023-05-19T09:37:44;6.95;;;1.90;;
19312;SDS011;9791;50.820;4.406;2023-05-19T09:40:14;7.45;;;2.50;;
19312;SDS011;9791;50.820;4.406;2023-05-19T09:42:40;7.22;;;2.35;;
19312;SDS011;9791;50.820;4.406;2023-05-19T09:45:08;6.20;;;2.30;;
19312;SDS011;9791;50.820;4.406;2023-05-19T09:47:34;6.43;;;2.75;;
19312;SDS011;9791;50.820;4.406;2023-05-19T09:50:03;6.10;;;2.42;;
19312;SDS011;9791;50.820;4.406;2023-05-19T09:52:29;10.77;;;5.60;;
19312;SDS011;9791;50.820;4.406;2023-05-19T09:54:55;11.70;;;2.10;;
19312;SDS011;9791;50.820;4.406;2023-05-19T09:57:24;5.68;;;2.15;;
19312;SDS011;9791;50.820;4.406;2023-05-19T09:59:53;13.43;;;2.72;;
19312;SDS011;9791;50.820;4.406;2023-05-19T10:02:20;48.08;;;6.55;;
19312;SDS011;9791;50.820;4.406;2023-05-19T10:04:49;32.13;;;6.22;;
19312;SDS011;9791;50.820;4.406;2023-05-19T10:07:18;30.42;;;3.95;;
19312;SDS011;9791;50.820;4.406;2023-05-19T10:09:48;6.85;;;2.42;;
19312;SDS011;9791;50.820;4.406;2023-05-19T10:12:14;28.95;;;5.82;;
19312;SDS011;9791;50.820;4.406;2023-05-19T10:14:41;63.58;;;9.68;;
19312;SDS011;9791;50.820;4.406;2023-05-19T10:17:07;14.10;;;3.33;;
19312;SDS011;9791;50.820;4.406;2023-05-19T10:19:34;122.65;;;19.13;;
19312;SDS011;9791;50.820;4.406;2023-05-19T10:22:00;7.72;;;2.63;;
19312;SDS011;9791;50.820;4.406;2023-05-19T10:24:26;6.38;;;2.72;;
19312;SDS011;9791;50.820;4.406;2023-05-19T10:29:29;9.20;;;2.30;;
19312;SDS011;9791;50.820;4.406;2023-05-19T10:31:58;9.90;;;2.15;;
19312;SDS011;9791;50.820;4.406;2023-05-19T10:37:26;7.10;;;2.22;;
19312;SDS011;9791;50.820;4.406;2023-05-19T10:39:56;7.07;;;2.72;;
19312;SDS011;9791;50.820;4.406;2023-05-19T10:47:25;9.00;;;2.25;;
19312;SDS011;9791;50.820;4.406;2023-05-19T10:49:54;7.97;;;2.50;;
19312;SDS011;9791;50.820;4.406;2023-05-19T10:52:21;9.77;;;2.65;;
19312;SDS011;9791;50.820;4.406;2023-05-19T10:54:49;7.57;;;2.60;;
19312;SDS011;9791;50.820;4.406;2023-05-19T10:57:27;7.85;;;3.00;;
19312;SDS011;9791;50.820;4.406;2023-05-19T10:59:56;7.25;;;2.30;;
19312;SDS011;9791;50.820;4.406;2023-05-19T11:05:10;9.13;;;2.33;;
19312;SDS011;9791;50.820;4.406;2023-05-19T11:07:41;6.60;;;2.65;;
19312;SDS011;9791;50.820;4.406;2023-05-19T11:10:08;6.57;;;2.20;;
19312;SDS011;9791;50.820;4.406;2023-05-19T11:12:41;6.80;;;2.30;;
19312;SDS011;9791;50.820;4.406;2023-05-19T11:15:11;11.52;;;2.83;;
19312;SDS011;9791;50.820;4.406;2023-05-19T11:17:38;8.25;;;2.50;;
19312;SDS011;9791;50.820;4.406;2023-05-19T11:20:06;9.50;;;2.30;;
19312;SDS011;9791;50.820;4.406;2023-05-19T11:22:33;7.57;;;2.28;;
19312;SDS011;9791;50.820;4.406;2023-05-19T11:25:00;6.55;;;2.63;;
19312;SDS011;9791;50.820;4.406;2023-05-19T11:27:28;7.22;;;2.28;;
19312;SDS011;9791;50.820;4.406;2023-05-19T11:29:56;11.50;;;2.58;;
19312;SDS011;9791;50.820;4.406;2023-05-19T11:32:30;6.38;;;2.55;;
19312;SDS011;9791;50.820;4.406;2023-05-19T11:34:57;5.15;;;2.42;;
19312;SDS011;9791;50.820;4.406;2023-05-19T11:37:24;11.23;;;2.70;;
19312;SDS011;9791;50.820;4.406;2023-05-19T11:39:50;8.15;;;2.55;;
19312;SDS011;9791;50.820;4.406;2023-05-19T11:42:16;7.85;;;2.25;;
19312;SDS011;9791;50.820;4.406;2023-05-19T11:44:43;6.15;;;1.95;;
19312;SDS011;9791;50.820;4.406;2023-05-19T11:47:13;7.05;;;2.28;;
19312;SDS011;9791;50.820;4.406;2023-05-19T11:49:42;9.15;;;2.45;;
19312;SDS011;9791;50.820;4.406;2023-05-19T11:52:09;4.47;;;1.88;;
19312;SDS011;9791;50.820;4.406;2023-05-19T11:54:36;5.95;;;2.10;;
19312;SDS011;9791;50.820;4.406;2023-05-19T11:57:03;7.07;;;1.92;;
19312;SDS011;9791;50.820;4.406;2023-05-19T11:59:30;7.13;;;2.10;;
19312;SDS011;9791;50.820;4.406;2023-05-19T12:01:57;7.78;;;2.22;;
19312;SDS011;9791;50.820;4.406;2023-05-19T12:04:23;6.80;;;2.38;;
19312;SDS011;9791;50.820;4.406;2023-05-19T12:06:49;7.38;;;3.00;;
19312;SDS011;9791;50.820;4.406;2023-05-19T12:09:16;10.63;;;2.40;;
19312;SDS011;9791;50.820;4.406;2023-05-19T12:11:43;7.15;;;2.25;;
19312;SDS011;9791;50.820;4.406;2023-05-19T12:14:09;6.38;;;2.10;;
19312;SDS011;9791;50.820;4.406;2023-05-19T12:16:35;8.48;;;2.53;;
19312;SDS011;9791;50.820;4.406;2023-05-19T12:19:06;7.90;;;2.58;;
19312;SDS011;9791;50.820;4.406;2023-05-19T12:21:32;8.02;;;2.50;;
19312;SDS011;9791;50.820;4.406;2023-05-19T12:23:58;8.30;;;2.60;;
19312;SDS011;9791;50.820;4.406;2023-05-19T12:26:24;7.00;;;2.60;;
19312;SDS011;9791;50.820;4.406;2023-05-19T12:28:50;6.43;;;2.45;;
19312;SDS011;9791;50.820;4.406;2023-05-19T12:31:17;5.22;;;2.20;;
19312;SDS011;9791;50.820;4.406;2023-05-19T12:33:44;9.45;;;2.63;;
19312;SDS011;9791;50.820;4.406;2023-05-19T12:36:10;6.90;;;2.38;;
19312;SDS011;9791;50.820;4.406;2023-05-19T12:38:37;4.68;;;1.85;;
19312;SDS011;9791;50.820;4.406;2023-05-19T12:41:06;5.60;;;1.80;;
19312;SDS011;9791;50.820;4.406;2023-05-19T12:43:32;9.13;;;2.67;;
19312;SDS011;9791;50.820;4.406;2023-05-19T12:46:07;10.00;;;2.20;;
19312;SDS011;9791;50.820;4.406;2023-05-19T12:48:34;8.55;;;1.88;;
19312;SDS011;9791;50.820;4.406;2023-05-19T12:51:00;10.40;;;2.22;;
19312;SDS011;9791;50.820;4.406;2023-05-19T12:53:26;6.65;;;2.30;;
19312;SDS011;9791;50.820;4.406;2023-05-19T12:55:52;8.90;;;2.72;;
19312;SDS011;9791;50.820;4.406;2023-05-19T12:58:18;12.00;;;2.20;;
19312;SDS011;9791;50.820;4.406;2023-05-19T13:00:46;7.78;;;2.10;;
19312;SDS011;9791;50.820;4.406;2023-05-19T13:03:17;6.88;;;2.47;;
19312;SDS011;9791;50.820;4.406;2023-05-19T13:05:44;11.25;;;2.72;;
19312;SDS011;9791;50.820;4.406;2023-05-19T13:08:12;6.47;;;2.63;;
19312;SDS011;9791;50.820;4.406;2023-05-19T13:10:39;7.60;;;2.05;;
19312;SDS011;9791;50.820;4.406;2023-05-19T13:13:05;11.48;;;2.38;;
19312;SDS011;9791;50.820;4.406;2023-05-19T13:15:32;5.90;;;1.92;;
19312;SDS011;9791;50.820;4.406;2023-05-19T13:17:59;8.98;;;2.38;;
19312;SDS011;9791;50.820;4.406;2023-05-19T13:20:25;8.93;;;2.08;;
19312;SDS011;9791;50.820;4.406;2023-05-19T13:22:52;8.40;;;2.70;;
19312;SDS011;9791;50.820;4.406;2023-05-19T13:25:18;6.82;;;2.30;;
19312;SDS011;9791;50.820;4.406;2023-05-19T13:27:45;6.70;;;2.25;;
19312;SDS011;9791;50.820;4.406;2023-05-19T13:30:12;8.27;;;2.60;;
19312;SDS011;9791;50.820;4.406;2023-05-19T13:32:38;7.47;;;2.33;;
19312;SDS011;9791;50.820;4.406;2023-05-19T13:35:04;7.45;;;2.40;;
19312;SDS011;9791;50.820;4.406;2023-05-19T13:37:30;9.02;;;2.80;;
19312;SDS011;9791;50.820;4.406;2023-05-19T13:39:57;7.95;;;2.00;;
19312;SDS011;9791;50.820;4.406;2023-05-19T13:42:23;6.65;;;2.08;;
19312;SDS011;9791;50.820;4.406;2023-05-19T13:44:52;5.75;;;2.22;;
19312;SDS011;9791;50.820;4.406;2023-05-19T13:47:19;8.50;;;2.75;;
19312;SDS011;9791;50.820;4.406;2023-05-19T13:49:46;9.18;;;2.70;;
19312;SDS011;9791;50.820;4.406;2023-05-19T13:52:12;9.13;;;2.90;;
19312;SDS011;9791;50.820;4.406;2023-05-19T13:54:39;10.80;;;2.97;;
19312;SDS011;9791;50.820;4.406;2023-05-19T13:57:05;5.35;;;2.28;;
19312;SDS011;9791;50.820;4.406;2023-05-19T13:59:31;7.53;;;2.50;;
19312;SDS011;9791;50.820;4.406;2023-05-19T14:01:58;8.23;;;2.80;;
19312;SDS011;9791;50.820;4.406;2023-05-19T14:04:24;10.70;;;2.72;;
19312;SDS011;9791;50.820;4.406;2023-05-19T14:06:50;5.82;;;2.42;;
19312;SDS011;9791;50.820;4.406;2023-05-19T14:09:16;9.13;;;2.53;;
19312;SDS011;9791;50.820;4.406;2023-05-19T14:11:42;6.47;;;2.30;;
19312;SDS011;9791;50.820;4.406;2023-05-19T14:14:08;9.32;;;2.33;;
19312;SDS011;9791;50.820;4.406;2023-05-19T14:16:35;7.72;;;2.13;;
19312;SDS011;9791;50.820;4.406;2023-05-19T14:19:01;8.30;;;2.38;;
19312;SDS011;9791;50.820;4.406;2023-05-19T14:21:27;8.20;;;2.10;;
19312;SDS011;9791;50.820;4.406;2023-05-19T14:23:54;6.65;;;2.53;;
19312;SDS011;9791;50.820;4.406;2023-05-19T14:26:20;5.55;;;2.28;;
19312;SDS011;9791;50.820;4.406;2023-05-19T14:28:46;9.05;;;2.35;;
19312;SDS011;9791;50.820;4.406;2023-05-19T14:31:12;8.38;;;2.08;;
19312;SDS011;9791;50.820;4.406;2023-05-19T14:33:38;8.48;;;2.22;;
19312;SDS011;9791;50.820;4.406;2023-05-19T14:36:05;11.98;;;2.22;;
19312;SDS011;9791;50.820;4.406;2023-05-19T14:38:31;6.57;;;2.03;;
19312;SDS011;9791;50.820;4.406;2023-05-19T14:40:57;7.97;;;2.30;;
19312;SDS011;9791;50.820;4.406;2023-05-19T14:43:23;6.95;;;2.20;;
19312;SDS011;9791;50.820;4.406;2023-05-19T14:45:49;8.30;;;2.72;;
19312;SDS011;9791;50.820;4.406;2023-05-19T14:48:15;10.20;;;2.50;;
19312;SDS011;9791;50.820;4.406;2023-05-19T14:50:42;7.70;;;2.05;;
19312;SDS011;9791;50.820;4.406;2023-05-19T14:53:08;9.35;;;2.10;;
19312;SDS011;9791;50.820;4.406;2023-05-19T14:55:34;5.65;;;2.10;;
19312;SDS011;9791;50.820;4.406;2023-05-19T14:58:00;8.82;;;2.38;;
19312;SDS011;9791;50.820;4.406;2023-05-19T15:00:26;7.68;;;2.28;;
19312;SDS011;9791;50.820;4.406;2023-05-19T15:02:53;9.55;;;3.13;;
19312;SDS011;9791;50.820;4.406;2023-05-19T15:05:20;7.35;;;2.13;;
19312;SDS011;9791;50.820;4.406;2023-05-19T15:07:48;6.80;;;2.30;;
19312;SDS011;9791;50.820;4.406;2023-05-19T15:10:14;10.98;;;2.20;;
19312;SDS011;9791;50.820;4.406;2023-05-19T15:12:40;5.72;;;2.53;;
19312;SDS011;9791;50.820;4.406;2023-05-19T15:15:06;7.43;;;2.15;;
19312;SDS011;9791;50.820;4.406;2023-05-19T15:17:33;8.35;;;2.25;;
19312;SDS011;9791;50.820;4.406;2023-05-19T15:19:59;7.20;;;2.38;;